sensor_id;sensor_type;location;lat;lon;timestamp;pressure;altitude;pressure_sealevel;temperature;humidity
44441;BME280;30146;52.268;20.944;2022-12-13T00:01:46;99329.77;;;0.13;70.96
44441;BME280;30146;52.268;20.944;2022-12-13T00:04:16;99330.75;;;0.11;71.20
44441;BME280;30146;52.268;20.944;2022-12-13T00:06:45;99331.23;;;0.10;71.23
44441;BME280;30146;52.268;20.944;2022-12-13T00:09:15;99331.86;;;0.07;71.23
44441;BME280;30146;52.268;20.944;2022-12-13T00:11:44;99335.02;;;0.05;71.16
44441;BME280;30146;52.268;20.944;2022-12-13T00:14:13;99338.17;;;0.04;71.22
44441;BME280;30146;52.268;20.944;2022-12-13T00:16:44;99336.96;;;0.02;71.19
44441;BME280;30146;52.268;20.944;2022-12-13T00:19:14;99335.93;;;-0.01;71.22
44441;BME280;30146;52.268;20.944;2022-12-13T00:21:44;99335.55;;;-0.03;71.15
44441;BME280;30146;52.268;20.944;2022-12-13T00:24:13;99346.27;;;-0.05;71.15
44441;BME280;30146;52.268;20.944;2022-12-13T00:26:41;99346.25;;;-0.06;71.27
44441;BME280;30146;52.268;20.944;2022-12-13T00:29:10;99346.73;;;-0.07;71.24
44441;BME280;30146;52.268;20.944;2022-12-13T00:31:39;99351.42;;;-0.08;71.20
44441;BME280;30146;52.268;20.944;2022-12-13T00:34:28;99353.73;;;-0.10;71.14
44441;BME280;30146;52.268;20.944;2022-12-13T00:36:56;99351.86;;;-0.12;71.18
44441;BME280;30146;52.268;20.944;2022-12-13T00:39:26;99355.52;;;-0.13;71.04
44441;BME280;30146;52.268;20.944;2022-12-13T00:41:54;99363.40;;;-0.15;71.16
44441;BME280;30146;52.268;20.944;2022-12-13T00:44:22;99368.77;;;-0.15;71.28
44441;BME280;30146;52.268;20.944;2022-12-13T00:46:51;99367.75;;;-0.16;71.33
44441;BME280;30146;52.268;20.944;2022-12-13T00:49:20;99367.91;;;-0.16;71.21
44441;BME280;30146;52.268;20.944;2022-12-13T00:51:48;99364.23;;;-0.15;71.34
44441;BME280;30146;52.268;20.944;2022-12-13T00:54:16;99365.95;;;-0.13;71.39
44441;BME280;30146;52.268;20.944;2022-12-13T00:56:45;99365.64;;;-0.11;71.40
44441;BME280;30146;52.268;20.944;2022-12-13T00:59:14;99368.37;;;-0.09;71.35
44441;BME280;30146;52.268;20.944;2022-12-13T01:01:42;99369.11;;;-0.06;71.22
44441;BME280;30146;52.268;20.944;2022-12-13T01:04:11;99369.16;;;-0.04;71.42
44441;BME280;30146;52.268;20.944;2022-12-13T01:06:41;99372.53;;;-0.01;71.48
44441;BME280;30146;52.268;20.944;2022-12-13T01:09:15;99375.09;;;0.00;71.32
44441;BME280;30146;52.268;20.944;2022-12-13T01:11:44;99378.96;;;0.01;71.38
44441;BME280;30146;52.268;20.944;2022-12-13T01:14:13;99382.83;;;0.01;71.01
44441;BME280;30146;52.268;20.944;2022-12-13T01:16:41;99383.99;;;-0.00;70.81
44441;BME280;30146;52.268;20.944;2022-12-13T01:19:10;99384.84;;;-0.00;70.81
44441;BME280;30146;52.268;20.944;2022-12-13T01:21:38;99383.98;;;-0.01;71.33
44441;BME280;30146;52.268;20.944;2022-12-13T01:24:07;99381.64;;;0.00;70.99
44441;BME280;30146;52.268;20.944;2022-12-13T01:26:36;99384.67;;;0.01;71.24
44441;BME280;30146;52.268;20.944;2022-12-13T01:29:04;99382.35;;;0.02;71.33
44441;BME280;30146;52.268;20.944;2022-12-13T01:31:32;99386.58;;;0.04;71.09
44441;BME280;30146;52.268;20.944;2022-12-13T01:34:00;99387.06;;;0.04;71.22
44441;BME280;30146;52.268;20.944;2022-12-13T01:36:37;99385.39;;;0.03;71.07
44441;BME280;30146;52.268;20.944;2022-12-13T01:39:06;99389.08;;;0.03;70.90
44441;BME280;30146;52.268;20.944;2022-12-13T01:41:44;99392.95;;;0.03;71.10
44441;BME280;30146;52.268;20.944;2022-12-13T01:47:20;99396.04;;;0.07;70.98
44441;BME280;30146;52.268;20.944;2022-12-13T01:49:51;99393.73;;;0.08;71.11
44441;BME280;30146;52.268;20.944;2022-12-13T01:52:21;99395.42;;;0.10;70.99
44441;BME280;30146;52.268;20.944;2022-12-13T01:54:51;99403.86;;;0.12;71.02
44441;BME280;30146;52.268;20.944;2022-12-13T01:57:32;99407.77;;;0.14;71.02
44441;BME280;30146;52.268;20.944;2022-12-13T02:00:01;99404.27;;;0.17;71.09
44441;BME280;30146;52.268;20.944;2022-12-13T02:02:34;99402.80;;;0.18;70.85
44441;BME280;30146;52.268;20.944;2022-12-13T02:05:06;99405.15;;;0.19;71.07
44441;BME280;30146;52.268;20.944;2022-12-13T02:07:37;99403.66;;;0.20;70.81
44441;BME280;30146;52.268;20.944;2022-12-13T02:10:09;99404.53;;;0.22;70.76
44441;BME280;30146;52.268;20.944;2022-12-13T02:12:39;99404.21;;;0.23;70.85
44441;BME280;30146;52.268;20.944;2022-12-13T02:15:11;99403.74;;;0.25;70.71
44441;BME280;30146;52.268;20.944;2022-12-13T02:21:11;99403.54;;;0.23;70.52
44441;BME280;30146;52.268;20.944;2022-12-13T02:27:31;99398.67;;;0.22;70.60
44441;BME280;30146;52.268;20.944;2022-12-13T02:30:21;99399.84;;;0.23;70.34
44441;BME280;30146;52.268;20.944;2022-12-13T02:33:18;99399.84;;;0.23;70.54
44441;BME280;30146;52.268;20.944;2022-12-13T02:35:54;99397.78;;;0.20;70.47
44441;BME280;30146;52.268;20.944;2022-12-13T02:38:31;99398.95;;;0.19;70.64
44441;BME280;30146;52.268;20.944;2022-12-13T02:41:08;99393.58;;;0.20;70.49
44441;BME280;30146;52.268;20.944;2022-12-13T02:43:46;99402.66;;;0.20;70.55
44441;BME280;30146;52.268;20.944;2022-12-13T02:46:17;99408.19;;;0.20;70.63
44441;BME280;30146;52.268;20.944;2022-12-13T02:48:48;99409.55;;;0.21;70.69
44441;BME280;30146;52.268;20.944;2022-12-13T02:51:19;99409.58;;;0.22;70.69
44441;BME280;30146;52.268;20.944;2022-12-13T02:53:49;99412.96;;;0.24;70.79
44441;BME280;30146;52.268;20.944;2022-12-13T02:56:17;99413.33;;;0.24;70.79
44441;BME280;30146;52.268;20.944;2022-12-13T02:58:48;99415.69;;;0.26;70.87
44441;BME280;30146;52.268;20.944;2022-12-13T03:01:34;99418.23;;;0.27;70.68
44441;BME280;30146;52.268;20.944;2022-12-13T03:04:14;99418.09;;;0.29;70.87
44441;BME280;30146;52.268;20.944;2022-12-13T03:06:59;99422.02;;;0.32;70.73
44441;BME280;30146;52.268;20.944;2022-12-13T03:09:38;99416.98;;;0.33;70.64
44441;BME280;30146;52.268;20.944;2022-12-13T03:12:17;99419.17;;;0.33;70.65
44441;BME280;30146;52.268;20.944;2022-12-13T03:15:14;99421.04;;;0.33;70.58
44441;BME280;30146;52.268;20.944;2022-12-13T03:17:49;99424.73;;;0.34;70.61
44441;BME280;30146;52.268;20.944;2022-12-13T03:20:23;99423.27;;;0.36;70.76
44441;BME280;30146;52.268;20.944;2022-12-13T03:22:53;99424.15;;;0.38;70.64
44441;BME280;30146;52.268;20.944;2022-12-13T03:25:23;99424.65;;;0.38;70.78
44441;BME280;30146;52.268;20.944;2022-12-13T03:27:59;99425.67;;;0.40;70.52
44441;BME280;30146;52.268;20.944;2022-12-13T03:30:31;99420.27;;;0.39;70.51
44441;BME280;30146;52.268;20.944;2022-12-13T03:33:00;99419.79;;;0.39;70.42
44441;BME280;30146;52.268;20.944;2022-12-13T03:35:29;99421.98;;;0.40;70.57
44441;BME280;30146;52.268;20.944;2022-12-13T03:38:13;99415.95;;;0.41;70.67
44441;BME280;30146;52.268;20.944;2022-12-13T03:40:53;99420.04;;;0.44;70.57
44441;BME280;30146;52.268;20.944;2022-12-13T03:43:23;99419.07;;;0.47;70.77
44441;BME280;30146;52.268;20.944;2022-12-13T03:45:52;99416.39;;;0.47;70.62
44441;BME280;30146;52.268;20.944;2022-12-13T03:48:21;99418.08;;;0.48;70.39
44441;BME280;30146;52.268;20.944;2022-12-13T03:50:52;99419.25;;;0.48;70.54
44441;BME280;30146;52.268;20.944;2022-12-13T03:53:21;99420.77;;;0.48;70.32
44441;BME280;30146;52.268;20.944;2022-12-13T03:56:02;99423.77;;;0.46;70.28
44441;BME280;30146;52.268;20.944;2022-12-13T03:58:32;99419.37;;;0.45;70.28
44441;BME280;30146;52.268;20.944;2022-12-13T04:01:06;99418.18;;;0.44;70.30
44441;BME280;30146;52.268;20.944;2022-12-13T04:03:35;99422.02;;;0.42;70.37
44441;BME280;30146;52.268;20.944;2022-12-13T04:06:04;99422.85;;;0.41;70.42
44441;BME280;30146;52.268;20.944;2022-12-13T04:11:01;99427.19;;;0.40;70.44
44441;BME280;30146;52.268;20.944;2022-12-13T04:13:53;99429.66;;;0.36;70.31
44441;BME280;30146;52.268;20.944;2022-12-13T04:16:22;99433.01;;;0.36;70.44
44441;BME280;30146;52.268;20.944;2022-12-13T04:18:51;99429.30;;;0.35;70.52
44441;BME280;30146;52.268;20.944;2022-12-13T04:21:19;99435.38;;;0.37;70.71
44441;BME280;30146;52.268;20.944;2022-12-13T04:23:47;99436.58;;;0.38;70.60
44441;BME280;30146;52.268;20.944;2022-12-13T04:26:15;99437.73;;;0.37;70.75
44441;BME280;30146;52.268;20.944;2022-12-13T04:28:43;99439.61;;;0.38;70.55
44441;BME280;30146;52.268;20.944;2022-12-13T04:31:19;99442.98;;;0.38;70.63
44441;BME280;30146;52.268;20.944;2022-12-13T04:33:48;99444.84;;;0.39;70.66
44441;BME280;30146;52.268;20.944;2022-12-13T04:36:16;99441.46;;;0.38;70.69
44441;BME280;30146;52.268;20.944;2022-12-13T04:39:00;99443.30;;;0.37;70.66
44441;BME280;30146;52.268;20.944;2022-12-13T04:41:33;99443.80;;;0.37;70.52
44441;BME280;30146;52.268;20.944;2022-12-13T04:44:03;99447.66;;;0.37;70.65
44441;BME280;30146;52.268;20.944;2022-12-13T04:46:32;99450.52;;;0.38;70.62
44441;BME280;30146;52.268;20.944;2022-12-13T04:49:00;99457.11;;;0.40;70.92
44441;BME280;30146;52.268;20.944;2022-12-13T04:51:28;99457.32;;;0.42;70.72
44441;BME280;30146;52.268;20.944;2022-12-13T04:53:57;99462.55;;;0.43;70.78
44441;BME280;30146;52.268;20.944;2022-12-13T04:56:45;99463.89;;;0.43;70.79
44441;BME280;30146;52.268;20.944;2022-12-13T04:59:13;99465.05;;;0.42;70.54
44441;BME280;30146;52.268;20.944;2022-12-13T05:01:42;99467.22;;;0.41;70.60
44441;BME280;30146;52.268;20.944;2022-12-13T05:04:10;99467.89;;;0.41;70.63
44441;BME280;30146;52.268;20.944;2022-12-13T05:06:39;99467.37;;;0.40;70.60
44441;BME280;30146;52.268;20.944;2022-12-13T05:09:07;99463.64;;;0.37;70.54
44441;BME280;30146;52.268;20.944;2022-12-13T05:11:38;99468.63;;;0.35;70.46
44441;BME280;30146;52.268;20.944;2022-12-13T05:14:15;99470.08;;;0.31;70.13
44441;BME280;30146;52.268;20.944;2022-12-13T05:16:50;99471.02;;;0.27;70.29
44441;BME280;30146;52.268;20.944;2022-12-13T05:19:19;99475.54;;;0.26;70.54
44441;BME280;30146;52.268;20.944;2022-12-13T05:21:47;99471.61;;;0.24;70.35
44441;BME280;30146;52.268;20.944;2022-12-13T05:24:16;99470.44;;;0.23;70.54
44441;BME280;30146;52.268;20.944;2022-12-13T05:26:44;99481.39;;;0.24;70.54
44441;BME280;30146;52.268;20.944;2022-12-13T05:29:12;99486.42;;;0.24;70.30
44441;BME280;30146;52.268;20.944;2022-12-13T05:31:40;99484.54;;;0.23;70.24
44441;BME280;30146;52.268;20.944;2022-12-13T05:34:09;99488.88;;;0.21;70.14
44441;BME280;30146;52.268;20.944;2022-12-13T05:36:37;99491.05;;;0.20;70.23
44441;BME280;30146;52.268;20.944;2022-12-13T05:39:05;99490.55;;;0.19;70.09
44441;BME280;30146;52.268;20.944;2022-12-13T05:41:54;99491.71;;;0.19;70.27
44441;BME280;30146;52.268;20.944;2022-12-13T05:44:29;99494.08;;;0.20;70.15
44441;BME280;30146;52.268;20.944;2022-12-13T05:46:57;99496.43;;;0.20;70.26
44441;BME280;30146;52.268;20.944;2022-12-13T05:49:30;99501.18;;;0.22;70.37
44441;BME280;30146;52.268;20.944;2022-12-13T05:51:59;99505.89;;;0.23;70.04
44441;BME280;30146;52.268;20.944;2022-12-13T05:54:27;99507.35;;;0.19;69.88
44441;BME280;30146;52.268;20.944;2022-12-13T05:56:55;99514.20;;;0.17;69.92
44441;BME280;30146;52.268;20.944;2022-12-13T05:59:23;99512.69;;;0.18;70.07
44441;BME280;30146;52.268;20.944;2022-12-13T06:01:51;99517.40;;;0.18;70.12
44441;BME280;30146;52.268;20.944;2022-12-13T06:04:19;99515.73;;;0.18;70.14
44441;BME280;30146;52.268;20.944;2022-12-13T06:06:50;99520.89;;;0.16;69.84
44441;BME280;30146;52.268;20.944;2022-12-13T06:09:19;99521.08;;;0.17;69.86
44441;BME280;30146;52.268;20.944;2022-12-13T06:11:47;99520.74;;;0.17;69.96
44441;BME280;30146;52.268;20.944;2022-12-13T06:14:16;99525.93;;;0.16;70.05
44441;BME280;30146;52.268;20.944;2022-12-13T06:16:51;99529.45;;;0.16;69.91
44441;BME280;30146;52.268;20.944;2022-12-13T06:19:20;99530.59;;;0.13;69.62
44441;BME280;30146;52.268;20.944;2022-12-13T06:21:49;99538.30;;;0.12;69.71
44441;BME280;30146;52.268;20.944;2022-12-13T06:24:19;99539.14;;;0.12;69.82
44441;BME280;30146;52.268;20.944;2022-12-13T06:26:48;99540.27;;;0.10;69.84
44441;BME280;30146;52.268;20.944;2022-12-13T06:29:18;99549.98;;;0.09;69.43
44441;BME280;30146;52.268;20.944;2022-12-13T06:31:54;99551.80;;;0.07;69.41
44441;BME280;30146;52.268;20.944;2022-12-13T06:34:31;99550.72;;;0.03;69.25
44441;BME280;30146;52.268;20.944;2022-12-13T06:37:04;99556.20;;;-0.01;69.24
44441;BME280;30146;52.268;20.944;2022-12-13T06:39:33;99563.38;;;-0.02;69.21
44441;BME280;30146;52.268;20.944;2022-12-13T06:42:09;99562.48;;;-0.05;69.31
44441;BME280;30146;52.268;20.944;2022-12-13T06:44:49;99568.84;;;-0.06;69.40
44441;BME280;30146;52.268;20.944;2022-12-13T06:47:24;99574.50;;;-0.09;69.16
44441;BME280;30146;52.268;20.944;2022-12-13T06:49:59;99575.09;;;-0.13;68.94
44441;BME280;30146;52.268;20.944;2022-12-13T06:52:33;99576.83;;;-0.18;68.97
44441;BME280;30146;52.268;20.944;2022-12-13T06:55:01;99579.94;;;-0.22;68.87
44441;BME280;30146;52.268;20.944;2022-12-13T06:57:31;99588.27;;;-0.25;68.87
44441;BME280;30146;52.268;20.944;2022-12-13T07:00:02;99587.73;;;-0.26;69.03
44441;BME280;30146;52.268;20.944;2022-12-13T07:02:31;99595.45;;;-0.26;68.97
44441;BME280;30146;52.268;20.944;2022-12-13T07:05:00;99596.44;;;-0.28;69.01
44441;BME280;30146;52.268;20.944;2022-12-13T07:07:28;99600.27;;;-0.29;68.86
44441;BME280;30146;52.268;20.944;2022-12-13T07:09:57;99604.11;;;-0.30;68.80
44441;BME280;30146;52.268;20.944;2022-12-13T07:12:25;99606.13;;;-0.30;69.14
44441;BME280;30146;52.268;20.944;2022-12-13T07:14:53;99610.32;;;-0.30;68.89
44441;BME280;30146;52.268;20.944;2022-12-13T07:17:22;99609.10;;;-0.32;68.73
44441;BME280;30146;52.268;20.944;2022-12-13T07:20:04;99612.08;;;-0.34;68.85
44441;BME280;30146;52.268;20.944;2022-12-13T07:22:36;99617.94;;;-0.34;68.77
44441;BME280;30146;52.268;20.944;2022-12-13T07:25:14;99620.79;;;-0.35;68.71
44441;BME280;30146;52.268;20.944;2022-12-13T07:27:58;99625.10;;;-0.37;68.68
44441;BME280;30146;52.268;20.944;2022-12-13T07:30:31;99624.60;;;-0.37;68.78
44441;BME280;30146;52.268;20.944;2022-12-13T07:33:01;99626.96;;;-0.36;68.56
44441;BME280;30146;52.268;20.944;2022-12-13T07:35:29;99631.98;;;-0.37;68.63
44441;BME280;30146;52.268;20.944;2022-12-13T07:38:06;99637.34;;;-0.38;68.46
44441;BME280;30146;52.268;20.944;2022-12-13T07:40:35;99645.04;;;-0.39;68.50
44441;BME280;30146;52.268;20.944;2022-12-13T07:43:04;99649.70;;;-0.40;68.49
44441;BME280;30146;52.268;20.944;2022-12-13T07:45:33;99648.95;;;-0.44;68.47
44441;BME280;30146;52.268;20.944;2022-12-13T07:48:05;99653.45;;;-0.46;68.35
44441;BME280;30146;52.268;20.944;2022-12-13T07:50:34;99654.89;;;-0.49;68.26
44441;BME280;30146;52.268;20.944;2022-12-13T07:53:05;99659.40;;;-0.50;68.28
44441;BME280;30146;52.268;20.944;2022-12-13T07:55:35;99657.15;;;-0.52;68.16
44441;BME280;30146;52.268;20.944;2022-12-13T07:58:07;99662.66;;;-0.54;68.16
44441;BME280;30146;52.268;20.944;2022-12-13T08:00:36;99665.64;;;-0.55;68.13
44441;BME280;30146;52.268;20.944;2022-12-13T08:03:05;99662.12;;;-0.55;68.27
44441;BME280;30146;52.268;20.944;2022-12-13T08:05:35;99670.86;;;-0.54;68.38
44441;BME280;30146;52.268;20.944;2022-12-13T08:08:08;99669.21;;;-0.53;68.63
44441;BME280;30146;52.268;20.944;2022-12-13T08:10:38;99670.96;;;-0.50;68.60
44441;BME280;30146;52.268;20.944;2022-12-13T08:13:06;99670.20;;;-0.48;68.73
44441;BME280;30146;52.268;20.944;2022-12-13T08:15:34;99675.98;;;-0.44;68.59
44441;BME280;30146;52.268;20.944;2022-12-13T08:18:02;99678.05;;;-0.42;68.57
44441;BME280;30146;52.268;20.944;2022-12-13T08:20:31;99681.09;;;-0.41;68.54
44441;BME280;30146;52.268;20.944;2022-12-13T08:23:00;99681.46;;;-0.39;68.32
44441;BME280;30146;52.268;20.944;2022-12-13T08:25:30;99684.51;;;-0.39;68.38
44441;BME280;30146;52.268;20.944;2022-12-13T08:27:58;99686.18;;;-0.39;68.09
44441;BME280;30146;52.268;20.944;2022-12-13T08:30:31;99689.83;;;-0.41;68.11
44441;BME280;30146;52.268;20.944;2022-12-13T08:32:59;99691.20;;;-0.40;68.37
44441;BME280;30146;52.268;20.944;2022-12-13T08:35:32;99689.27;;;-0.37;68.51
44441;BME280;30146;52.268;20.944;2022-12-13T08:38:02;99692.15;;;-0.35;68.36
44441;BME280;30146;52.268;20.944;2022-12-13T08:40:31;99691.78;;;-0.36;68.40
44441;BME280;30146;52.268;20.944;2022-12-13T08:42:59;99692.79;;;-0.37;67.97
44441;BME280;30146;52.268;20.944;2022-12-13T08:45:30;99694.09;;;-0.38;68.08
44441;BME280;30146;52.268;20.944;2022-12-13T08:48:01;99698.09;;;-0.40;68.05
44441;BME280;30146;52.268;20.944;2022-12-13T08:50:30;99700.91;;;-0.41;67.91
44441;BME280;30146;52.268;20.944;2022-12-13T08:52:58;99703.73;;;-0.43;68.02
44441;BME280;30146;52.268;20.944;2022-12-13T08:55:26;99702.52;;;-0.44;68.03
44441;BME280;30146;52.268;20.944;2022-12-13T08:58:03;99707.55;;;-0.43;68.06
44441;BME280;30146;52.268;20.944;2022-12-13T09:00:35;99710.95;;;-0.43;68.03
44441;BME280;30146;52.268;20.944;2022-12-13T09:03:05;99710.98;;;-0.41;68.12
44441;BME280;30146;52.268;20.944;2022-12-13T09:05:37;99715.20;;;-0.41;68.02
44441;BME280;30146;52.268;20.944;2022-12-13T09:08:06;99718.80;;;-0.37;68.04
44441;BME280;30146;52.268;20.944;2022-12-13T09:11:00;99720.58;;;-0.34;67.91
44441;BME280;30146;52.268;20.944;2022-12-13T09:13:39;99720.95;;;-0.31;67.83
44441;BME280;30146;52.268;20.944;2022-12-13T09:16:14;99726.04;;;-0.30;67.83
44441;BME280;30146;52.268;20.944;2022-12-13T09:18:51;99725.75;;;-0.28;67.92
44441;BME280;30146;52.268;20.944;2022-12-13T09:21:22;99725.44;;;-0.27;67.84
44441;BME280;30146;52.268;20.944;2022-12-13T09:23:59;99726.15;;;-0.25;67.75
44441;BME280;30146;52.268;20.944;2022-12-13T09:26:29;99725.98;;;-0.25;67.65
44441;BME280;30146;52.268;20.944;2022-12-13T09:29:05;99726.77;;;-0.27;67.29
44441;BME280;30146;52.268;20.944;2022-12-13T09:31:39;99724.23;;;-0.28;67.35
44441;BME280;30146;52.268;20.944;2022-12-13T09:34:07;99725.56;;;-0.28;67.18
44441;BME280;30146;52.268;20.944;2022-12-13T09:36:35;99725.55;;;-0.29;67.03
44441;BME280;30146;52.268;20.944;2022-12-13T09:39:03;99730.21;;;-0.31;67.08
44441;BME280;30146;52.268;20.944;2022-12-13T09:41:34;99727.02;;;-0.31;67.30
44441;BME280;30146;52.268;20.944;2022-12-13T09:44:14;99729.91;;;-0.29;67.48
44441;BME280;30146;52.268;20.944;2022-12-13T09:47:08;99739.04;;;-0.26;67.36
44441;BME280;30146;52.268;20.944;2022-12-13T09:49:43;99737.17;;;-0.27;67.31
44441;BME280;30146;52.268;20.944;2022-12-13T09:52:22;99735.52;;;-0.27;67.36
44441;BME280;30146;52.268;20.944;2022-12-13T09:54:53;99735.08;;;-0.24;67.33
44441;BME280;30146;52.268;20.944;2022-12-13T09:57:26;99738.18;;;-0.21;67.54
44441;BME280;30146;52.268;20.944;2022-12-13T10:00:03;99736.98;;;-0.21;67.11
44441;BME280;30146;52.268;20.944;2022-12-13T10:02:42;99737.82;;;-0.22;67.18
44441;BME280;30146;52.268;20.944;2022-12-13T10:05:17;99739.27;;;-0.17;67.24
44441;BME280;30146;52.268;20.944;2022-12-13T10:07:53;99739.54;;;-0.13;67.16
44441;BME280;30146;52.268;20.944;2022-12-13T10:10:25;99741.30;;;-0.09;67.07
44441;BME280;30146;52.268;20.944;2022-12-13T10:12:58;99737.85;;;-0.07;67.07
44441;BME280;30146;52.268;20.944;2022-12-13T10:15:31;99739.41;;;-0.04;67.18
44441;BME280;30146;52.268;20.944;2022-12-13T10:18:03;99739.05;;;-0.05;67.17
44441;BME280;30146;52.268;20.944;2022-12-13T10:20:32;99740.52;;;-0.07;67.18
44441;BME280;30146;52.268;20.944;2022-12-13T10:23:01;99745.52;;;-0.09;67.20
44441;BME280;30146;52.268;20.944;2022-12-13T10:25:52;99748.14;;;-0.11;67.22
44441;BME280;30146;52.268;20.944;2022-12-13T10:28:32;99746.41;;;-0.14;67.12
44441;BME280;30146;52.268;20.944;2022-12-13T10:31:01;99742.10;;;-0.11;67.30
44441;BME280;30146;52.268;20.944;2022-12-13T10:33:32;99746.77;;;-0.05;67.62
44441;BME280;30146;52.268;20.944;2022-12-13T10:36:07;99750.41;;;-0.01;67.69
44441;BME280;30146;52.268;20.944;2022-12-13T10:38:38;99746.43;;;0.02;67.66
44441;BME280;30146;52.268;20.944;2022-12-13T10:41:28;99749.62;;;0.02;67.43
44441;BME280;30146;52.268;20.944;2022-12-13T10:44:18;99749.45;;;0.01;67.31
44441;BME280;30146;52.268;20.944;2022-12-13T10:47:04;99749.60;;;0.00;67.16
44441;BME280;30146;52.268;20.944;2022-12-13T10:49:52;99744.85;;;-0.02;67.18
44441;BME280;30146;52.268;20.944;2022-12-13T10:52:30;99739.89;;;0.02;67.37
44441;BME280;30146;52.268;20.944;2022-12-13T10:55:01;99738.35;;;0.08;67.47
44441;BME280;30146;52.268;20.944;2022-12-13T10:57:51;99734.65;;;0.15;67.27
44441;BME280;30146;52.268;20.944;2022-12-13T11:00:32;99734.41;;;0.19;67.32
44441;BME280;30146;52.268;20.944;2022-12-13T11:03:01;99736.55;;;0.25;67.23
44441;BME280;30146;52.268;20.944;2022-12-13T11:05:31;99739.17;;;0.29;67.09
44441;BME280;30146;52.268;20.944;2022-12-13T11:08:13;99738.27;;;0.35;67.26
44441;BME280;30146;52.268;20.944;2022-12-13T11:10:42;99735.05;;;0.41;67.27
44441;BME280;30146;52.268;20.944;2022-12-13T11:13:22;99736.27;;;0.43;67.20
44441;BME280;30146;52.268;20.944;2022-12-13T11:15:54;99736.90;;;0.41;66.83
44441;BME280;30146;52.268;20.944;2022-12-13T11:18:25;99734.69;;;0.40;66.91
44441;BME280;30146;52.268;20.944;2022-12-13T11:20:57;99735.45;;;0.36;66.93
44441;BME280;30146;52.268;20.944;2022-12-13T11:23:28;99735.80;;;0.29;66.57
44441;BME280;30146;52.268;20.944;2022-12-13T11:26:03;99740.11;;;0.18;66.37
44441;BME280;30146;52.268;20.944;2022-12-13T11:28:46;99732.25;;;0.06;66.36
44441;BME280;30146;52.268;20.944;2022-12-13T11:31:22;99733.98;;;-0.07;66.20
44441;BME280;30146;52.268;20.944;2022-12-13T11:33:58;99732.21;;;-0.17;66.15
44441;BME280;30146;52.268;20.944;2022-12-13T11:36:37;99736.06;;;-0.25;66.47
44441;BME280;30146;52.268;20.944;2022-12-13T11:39:18;99733.08;;;-0.30;66.58
44441;BME280;30146;52.268;20.944;2022-12-13T11:41:52;99732.81;;;-0.34;66.72
44441;BME280;30146;52.268;20.944;2022-12-13T11:44:32;99738.11;;;-0.37;66.82
44441;BME280;30146;52.268;20.944;2022-12-13T11:47:05;99736.86;;;-0.40;66.66
44441;BME280;30146;52.268;20.944;2022-12-13T11:49:39;99737.08;;;-0.45;66.64
44441;BME280;30146;52.268;20.944;2022-12-13T11:52:14;99736.25;;;-0.51;66.50
44441;BME280;30146;52.268;20.944;2022-12-13T11:54:49;99734.77;;;-0.57;66.61
44441;BME280;30146;52.268;20.944;2022-12-13T11:57:27;99738.52;;;-0.61;66.63
44441;BME280;30146;52.268;20.944;2022-12-13T12:00:03;99744.01;;;-0.63;66.59
44441;BME280;30146;52.268;20.944;2022-12-13T12:02:44;99741.94;;;-0.59;66.73
44441;BME280;30146;52.268;20.944;2022-12-13T12:05:26;99744.38;;;-0.55;66.71
44441;BME280;30146;52.268;20.944;2022-12-13T12:07:58;99747.98;;;-0.46;66.75
44441;BME280;30146;52.268;20.944;2022-12-13T12:10:55;99750.33;;;-0.39;66.90
44441;BME280;30146;52.268;20.944;2022-12-13T12:13:30;99755.61;;;-0.36;66.85
44441;BME280;30146;52.268;20.944;2022-12-13T12:16:26;99756.73;;;-0.32;66.73
44441;BME280;30146;52.268;20.944;2022-12-13T12:18:56;99763.02;;;-0.28;66.89
44441;BME280;30146;52.268;20.944;2022-12-13T12:21:49;99763.41;;;-0.26;66.72
44441;BME280;30146;52.268;20.944;2022-12-13T12:24:52;99767.70;;;-0.23;66.88
44441;BME280;30146;52.268;20.944;2022-12-13T12:27:32;99765.64;;;-0.17;67.00
44441;BME280;30146;52.268;20.944;2022-12-13T12:30:13;99770.94;;;-0.13;66.86
44441;BME280;30146;52.268;20.944;2022-12-13T12:32:59;99772.39;;;-0.09;66.75
44441;BME280;30146;52.268;20.944;2022-12-13T12:35:58;99777.40;;;-0.03;66.57
44441;BME280;30146;52.268;20.944;2022-12-13T12:38:46;99776.47;;;-0.01;66.51
44441;BME280;30146;52.268;20.944;2022-12-13T12:41:29;99776.19;;;0.02;66.53
44441;BME280;30146;52.268;20.944;2022-12-13T12:44:07;99779.48;;;0.06;66.59
44441;BME280;30146;52.268;20.944;2022-12-13T12:46:49;99776.86;;;0.09;66.35
44441;BME280;30146;52.268;20.944;2022-12-13T12:49:54;99784.30;;;0.11;66.27
44441;BME280;30146;52.268;20.944;2022-12-13T12:52:33;99785.45;;;0.10;66.39
44441;BME280;30146;52.268;20.944;2022-12-13T12:55:14;99786.52;;;0.06;66.10
44441;BME280;30146;52.268;20.944;2022-12-13T12:57:53;99786.55;;;0.00;65.90
44441;BME280;30146;52.268;20.944;2022-12-13T13:00:33;99789.55;;;-0.08;65.62
44441;BME280;30146;52.268;20.944;2022-12-13T13:03:13;99791.20;;;-0.16;65.37
44441;BME280;30146;52.268;20.944;2022-12-13T13:05:54;99788.15;;;-0.24;65.45
44441;BME280;30146;52.268;20.944;2022-12-13T13:08:35;99786.30;;;-0.31;65.61
44441;BME280;30146;52.268;20.944;2022-12-13T13:11:06;99796.13;;;-0.34;65.58
44441;BME280;30146;52.268;20.944;2022-12-13T13:14:05;99798.58;;;-0.37;65.64
44441;BME280;30146;52.268;20.944;2022-12-13T13:16:52;99803.20;;;-0.40;65.68
44441;BME280;30146;52.268;20.944;2022-12-13T13:19:45;99806.48;;;-0.43;65.59
44441;BME280;30146;52.268;20.944;2022-12-13T13:22:28;99805.77;;;-0.44;65.75
44441;BME280;30146;52.268;20.944;2022-12-13T13:27:45;99810.53;;;-0.42;65.92
44441;BME280;30146;52.268;20.944;2022-12-13T13:30:19;99814.11;;;-0.40;65.92
44441;BME280;30146;52.268;20.944;2022-12-13T13:32:49;99816.17;;;-0.38;66.00
44441;BME280;30146;52.268;20.944;2022-12-13T13:35:51;99812.01;;;-0.37;65.83
44441;BME280;30146;52.268;20.944;2022-12-13T13:38:51;99822.27;;;-0.36;65.70
44441;BME280;30146;52.268;20.944;2022-12-13T13:41:56;99823.55;;;-0.39;65.54
44441;BME280;30146;52.268;20.944;2022-12-13T13:44:53;99823.89;;;-0.45;65.57
44441;BME280;30146;52.268;20.944;2022-12-13T13:47:39;99824.14;;;-0.48;65.42